sensor_id;sensor_type;location;lat;lon;timestamp;P1;durP1;ratioP1;P2;durP2;ratioP2
55467;SDS011;41332;42.702;23.200;2023-05-08T00:01:03;8.02;;;5.80;;
55467;SDS011;41332;42.702;23.200;2023-05-08T00:03:29;7.10;;;6.50;;
55467;SDS011;41332;42.702;23.200;2023-05-08T00:05:55;8.00;;;5.78;;
55467;SDS011;41332;42.702;23.200;2023-05-08T00:08:20;8.75;;;6.78;;
55467;SDS011;41332;42.702;23.200;2023-05-08T00:10:46;7.30;;;6.60;;
55467;SDS011;41332;42.702;23.200;2023-05-08T00:13:11;7.50;;;6.68;;
55467;SDS011;41332;42.702;23.200;2023-05-08T00:15:37;10.05;;;7.55;;
55467;SDS011;41332;42.702;23.200;2023-05-08T00:18:02;8.38;;;6.13;;
55467;SDS011;41332;42.702;23.200;2023-05-08T00:20:28;11.55;;;6.05;;
55467;SDS011;41332;42.702;23.200;2023-05-08T00:22:53;6.57;;;5.93;;
55467;SDS011;41332;42.702;23.200;2023-05-08T00:25:19;7.63;;;5.53;;
55467;SDS011;41332;42.702;23.200;2023-05-08T00:27:44;9.63;;;5.60;;
55467;SDS011;41332;42.702;23.200;2023-05-08T00:30:09;6.55;;;5.30;;
55467;SDS011;41332;42.702;23.200;2023-05-08T00:32:35;7.53;;;5.43;;
55467;SDS011;41332;42.702;23.200;2023-05-08T00:35:01;8.45;;;5.47;;
55467;SDS011;41332;42.702;23.200;2023-05-08T00:37:26;6.80;;;5.22;;
55467;SDS011;41332;42.702;23.200;2023-05-08T00:39:51;6.43;;;5.47;;
55467;SDS011;41332;42.702;23.200;2023-05-08T00:42:17;7.07;;;5.15;;
55467;SDS011;41332;42.702;23.200;2023-05-08T00:44:42;7.03;;;6.05;;
55467;SDS011;41332;42.702;23.200;2023-05-08T00:47:08;5.75;;;5.13;;
55467;SDS011;41332;42.702;23.200;2023-05-08T00:49:33;9.52;;;5.55;;
55467;SDS011;41332;42.702;23.200;2023-05-08T00:52:00;5.82;;;5.07;;
55467;SDS011;41332;42.702;23.200;2023-05-08T00:54:29;6.57;;;5.97;;
55467;SDS011;41332;42.702;23.200;2023-05-08T00:56:55;10.10;;;6.00;;
55467;SDS011;41332;42.702;23.200;2023-05-08T00:59:20;11.30;;;6.63;;
55467;SDS011;41332;42.702;23.200;2023-05-08T01:01:49;6.03;;;5.53;;
55467;SDS011;41332;42.702;23.200;2023-05-08T01:04:16;6.55;;;5.53;;
55467;SDS011;41332;42.702;23.200;2023-05-08T01:06:45;6.80;;;6.03;;
55467;SDS011;41332;42.702;23.200;2023-05-08T01:09:10;8.98;;;6.22;;
55467;SDS011;41332;42.702;23.200;2023-05-08T01:11:37;9.10;;;5.85;;
55467;SDS011;41332;42.702;23.200;2023-05-08T01:34:10;6.00;;;5.50;;
55467;SDS011;41332;42.702;23.200;2023-05-08T01:37:05;6.72;;;5.70;;
55467;SDS011;41332;42.702;23.200;2023-05-08T01:42:17;11.25;;;5.57;;
55467;SDS011;41332;42.702;23.200;2023-05-08T01:44:51;7.65;;;6.18;;
55467;SDS011;41332;42.702;23.200;2023-05-08T01:47:21;6.82;;;5.72;;
55467;SDS011;41332;42.702;23.200;2023-05-08T01:49:53;12.68;;;6.70;;
55467;SDS011;41332;42.702;23.200;2023-05-08T01:52:33;12.38;;;6.65;;
55467;SDS011;41332;42.702;23.200;2023-05-08T01:55:10;7.28;;;5.60;;
55467;SDS011;41332;42.702;23.200;2023-05-08T01:57:39;8.35;;;5.97;;
55467;SDS011;41332;42.702;23.200;2023-05-08T02:00:09;14.70;;;8.50;;
55467;SDS011;41332;42.702;23.200;2023-05-08T02:02:34;13.25;;;7.28;;
55467;SDS011;41332;42.702;23.200;2023-05-08T02:05:01;9.57;;;6.97;;
55467;SDS011;41332;42.702;23.200;2023-05-08T02:07:29;9.65;;;7.68;;
55467;SDS011;41332;42.702;23.200;2023-05-08T02:09:55;15.23;;;6.07;;
55467;SDS011;41332;42.702;23.200;2023-05-08T02:12:22;11.77;;;6.78;;
55467;SDS011;41332;42.702;23.200;2023-05-08T02:17:17;19.92;;;8.70;;
55467;SDS011;41332;42.702;23.200;2023-05-08T02:19:42;12.52;;;8.07;;
55467;SDS011;41332;42.702;23.200;2023-05-08T02:22:09;7.85;;;5.45;;
55467;SDS011;41332;42.702;23.200;2023-05-08T02:24:37;8.45;;;6.45;;
55467;SDS011;41332;42.702;23.200;2023-05-08T02:27:04;13.60;;;9.47;;
55467;SDS011;41332;42.702;23.200;2023-05-08T02:29:31;19.02;;;8.75;;
55467;SDS011;41332;42.702;23.200;2023-05-08T02:31:57;10.50;;;8.20;;
55467;SDS011;41332;42.702;23.200;2023-05-08T02:34:25;12.45;;;6.55;;
55467;SDS011;41332;42.702;23.200;2023-05-08T02:36:52;6.60;;;5.72;;
55467;SDS011;41332;42.702;23.200;2023-05-08T02:39:18;5.95;;;5.32;;
55467;SDS011;41332;42.702;23.200;2023-05-08T02:41:46;9.10;;;4.95;;
55467;SDS011;41332;42.702;23.200;2023-05-08T02:44:12;6.40;;;5.70;;
55467;SDS011;41332;42.702;23.200;2023-05-08T02:49:26;7.75;;;4.97;;
55467;SDS011;41332;42.702;23.200;2023-05-08T02:52:07;5.05;;;4.50;;
55467;SDS011;41332;42.702;23.200;2023-05-08T02:54:43;5.28;;;4.82;;
55467;SDS011;41332;42.702;23.200;2023-05-08T02:57:23;5.40;;;4.90;;
55467;SDS011;41332;42.702;23.200;2023-05-08T03:00:15;4.07;;;3.65;;
55467;SDS011;41332;42.702;23.200;2023-05-08T03:03:04;5.72;;;3.97;;
55467;SDS011;41332;42.702;23.200;2023-05-08T03:05:36;7.10;;;4.33;;
55467;SDS011;41332;42.702;23.200;2023-05-08T03:08:07;5.70;;;4.40;;
55467;SDS011;41332;42.702;23.200;2023-05-08T03:10:38;11.88;;;4.43;;
55467;SDS011;41332;42.702;23.200;2023-05-08T03:13:06;6.45;;;4.38;;
55467;SDS011;41332;42.702;23.200;2023-05-08T03:15:36;6.28;;;4.25;;
55467;SDS011;41332;42.702;23.200;2023-05-08T03:18:12;6.32;;;5.07;;
55467;SDS011;41332;42.702;23.200;2023-05-08T03:20:41;5.90;;;4.55;;
55467;SDS011;41332;42.702;23.200;2023-05-08T03:23:11;5.13;;;4.15;;
55467;SDS011;41332;42.702;23.200;2023-05-08T03:25:38;4.78;;;4.38;;
55467;SDS011;41332;42.702;23.200;2023-05-08T03:28:06;4.13;;;3.85;;
55467;SDS011;41332;42.702;23.200;2023-05-08T03:30:35;7.78;;;4.47;;
55467;SDS011;41332;42.702;23.200;2023-05-08T03:33:05;5.45;;;4.32;;
55467;SDS011;41332;42.702;23.200;2023-05-08T03:35:33;4.72;;;4.30;;
55467;SDS011;41332;42.702;23.200;2023-05-08T03:38:03;6.15;;;4.40;;
55467;SDS011;41332;42.702;23.200;2023-05-08T03:40:30;5.20;;;4.68;;
55467;SDS011;41332;42.702;23.200;2023-05-08T03:43:00;4.43;;;4.03;;
55467;SDS011;41332;42.702;23.200;2023-05-08T03:45:28;4.38;;;3.75;;
55467;SDS011;41332;42.702;23.200;2023-05-08T03:50:21;4.40;;;3.75;;
55467;SDS011;41332;42.702;23.200;2023-05-08T03:52:46;3.75;;;3.45;;
55467;SDS011;41332;42.702;23.200;2023-05-08T03:55:12;6.97;;;3.65;;
55467;SDS011;41332;42.702;23.200;2023-05-08T04:00:40;3.90;;;3.60;;
55467;SDS011;41332;42.702;23.200;2023-05-08T04:06:30;8.95;;;3.90;;
55467;SDS011;41332;42.702;23.200;2023-05-08T04:12:04;4.25;;;3.50;;
55467;SDS011;41332;42.702;23.200;2023-05-08T04:14:39;4.90;;;4.38;;
55467;SDS011;41332;42.702;23.200;2023-05-08T04:17:09;4.07;;;3.72;;
55467;SDS011;41332;42.702;23.200;2023-05-08T04:19:42;4.18;;;3.78;;
55467;SDS011;41332;42.702;23.200;2023-05-08T04:22:10;4.78;;;4.00;;
55467;SDS011;41332;42.702;23.200;2023-05-08T04:24:39;5.15;;;4.65;;
55467;SDS011;41332;42.702;23.200;2023-05-08T04:27:08;4.47;;;4.07;;
55467;SDS011;41332;42.702;23.200;2023-05-08T04:29:34;4.70;;;3.92;;
55467;SDS011;41332;42.702;23.200;2023-05-08T04:32:01;5.13;;;3.90;;
55467;SDS011;41332;42.702;23.200;2023-05-08T04:34:29;4.22;;;3.83;;
55467;SDS011;41332;42.702;23.200;2023-05-08T04:36:55;3.65;;;3.35;;
55467;SDS011;41332;42.702;23.200;2023-05-08T04:39:21;3.70;;;3.40;;
55467;SDS011;41332;42.702;23.200;2023-05-08T04:41:46;4.35;;;3.95;;
55467;SDS011;41332;42.702;23.200;2023-05-08T04:44:12;3.95;;;3.63;;
55467;SDS011;41332;42.702;23.200;2023-05-08T04:46:38;5.68;;;3.83;;
55467;SDS011;41332;42.702;23.200;2023-05-08T04:49:04;3.95;;;3.60;;
55467;SDS011;41332;42.702;23.200;2023-05-08T04:51:29;4.90;;;3.83;;
55467;SDS011;41332;42.702;23.200;2023-05-08T04:53:55;2.95;;;2.65;;
55467;SDS011;41332;42.702;23.200;2023-05-08T04:56:21;4.20;;;3.90;;
55467;SDS011;41332;42.702;23.200;2023-05-08T04:58:47;4.55;;;4.15;;
55467;SDS011;41332;42.702;23.200;2023-05-08T05:01:12;7.05;;;4.40;;
55467;SDS011;41332;42.702;23.200;2023-05-08T05:03:37;5.05;;;3.63;;
55467;SDS011;41332;42.702;23.200;2023-05-08T05:06:03;4.45;;;3.85;;
55467;SDS011;41332;42.702;23.200;2023-05-08T05:08:29;4.65;;;3.80;;
55467;SDS011;41332;42.702;23.200;2023-05-08T05:10:54;5.88;;;4.22;;
55467;SDS011;41332;42.702;23.200;2023-05-08T05:13:20;3.55;;;3.00;;
55467;SDS011;41332;42.702;23.200;2023-05-08T05:15:45;6.32;;;3.85;;
55467;SDS011;41332;42.702;23.200;2023-05-08T05:18:11;5.20;;;3.88;;
55467;SDS011;41332;42.702;23.200;2023-05-08T05:20:36;4.97;;;4.50;;
55467;SDS011;41332;42.702;23.200;2023-05-08T05:23:02;4.65;;;4.10;;
55467;SDS011;41332;42.702;23.200;2023-05-08T05:25:28;5.85;;;4.38;;
55467;SDS011;41332;42.702;23.200;2023-05-08T05:27:53;4.50;;;4.00;;
55467;SDS011;41332;42.702;23.200;2023-05-08T05:30:18;6.78;;;4.85;;
55467;SDS011;41332;42.702;23.200;2023-05-08T05:32:44;5.18;;;4.63;;
55467;SDS011;41332;42.702;23.200;2023-05-08T05:35:09;4.00;;;3.70;;
55467;SDS011;41332;42.702;23.200;2023-05-08T05:37:35;4.60;;;4.20;;
55467;SDS011;41332;42.702;23.200;2023-05-08T05:40:01;5.38;;;4.82;;
55467;SDS011;41332;42.702;23.200;2023-05-08T05:42:27;6.15;;;5.65;;
55467;SDS011;41332;42.702;23.200;2023-05-08T05:44:52;6.05;;;4.38;;
55467;SDS011;41332;42.702;23.200;2023-05-08T05:47:17;8.50;;;4.30;;
55467;SDS011;41332;42.702;23.200;2023-05-08T05:49:43;6.85;;;5.63;;
55467;SDS011;41332;42.702;23.200;2023-05-08T05:52:11;13.98;;;4.50;;
55467;SDS011;41332;42.702;23.200;2023-05-08T05:54:37;7.15;;;5.63;;
55467;SDS011;41332;42.702;23.200;2023-05-08T05:57:03;5.18;;;4.78;;
55467;SDS011;41332;42.702;23.200;2023-05-08T05:59:28;6.38;;;4.85;;
55467;SDS011;41332;42.702;23.200;2023-05-08T06:01:54;5.57;;;5.05;;
55467;SDS011;41332;42.702;23.200;2023-05-08T06:04:19;9.52;;;4.28;;
55467;SDS011;41332;42.702;23.200;2023-05-08T06:06:45;6.38;;;3.85;;
55467;SDS011;41332;42.702;23.200;2023-05-08T06:09:10;8.18;;;5.55;;
55467;SDS011;41332;42.702;23.200;2023-05-08T06:11:35;8.43;;;4.70;;
55467;SDS011;41332;42.702;23.200;2023-05-08T06:14:01;4.70;;;4.30;;
55467;SDS011;41332;42.702;23.200;2023-05-08T06:16:26;4.68;;;4.10;;
55467;SDS011;41332;42.702;23.200;2023-05-08T06:18:52;5.55;;;3.95;;
55467;SDS011;41332;42.702;23.200;2023-05-08T06:21:17;5.20;;;4.00;;
55467;SDS011;41332;42.702;23.200;2023-05-08T06:23:42;4.60;;;4.25;;
55467;SDS011;41332;42.702;23.200;2023-05-08T06:26:08;4.65;;;4.25;;
55467;SDS011;41332;42.702;23.200;2023-05-08T06:28:33;4.60;;;4.20;;
55467;SDS011;41332;42.702;23.200;2023-05-08T06:30:59;17.40;;;5.13;;
55467;SDS011;41332;42.702;23.200;2023-05-08T06:33:24;7.03;;;4.75;;
55467;SDS011;41332;42.702;23.200;2023-05-08T06:35:50;3.92;;;3.63;;
55467;SDS011;41332;42.702;23.200;2023-05-08T06:38:15;8.27;;;3.53;;
55467;SDS011;41332;42.702;23.200;2023-05-08T06:40:41;5.03;;;3.58;;
55467;SDS011;41332;42.702;23.200;2023-05-08T06:43:08;3.55;;;3.30;;
55467;SDS011;41332;42.702;23.200;2023-05-08T06:45:33;3.78;;;3.47;;
55467;SDS011;41332;42.702;23.200;2023-05-08T06:47:59;4.90;;;3.33;;
55467;SDS011;41332;42.702;23.200;2023-05-08T06:50:24;9.07;;;4.13;;
55467;SDS011;41332;42.702;23.200;2023-05-08T06:52:49;3.85;;;3.55;;
55467;SDS011;41332;42.702;23.200;2023-05-08T06:55:15;4.28;;;3.40;;
55467;SDS011;41332;42.702;23.200;2023-05-08T06:57:40;4.00;;;3.60;;
55467;SDS011;41332;42.702;23.200;2023-05-08T07:00:06;4.18;;;3.80;;
55467;SDS011;41332;42.702;23.200;2023-05-08T07:02:35;5.75;;;3.47;;
55467;SDS011;41332;42.702;23.200;2023-05-08T07:05:01;4.30;;;4.00;;
55467;SDS011;41332;42.702;23.200;2023-05-08T07:07:27;6.13;;;3.80;;
55467;SDS011;41332;42.702;23.200;2023-05-08T07:09:52;5.05;;;3.35;;
55467;SDS011;41332;42.702;23.200;2023-05-08T07:12:18;3.05;;;2.85;;
55467;SDS011;41332;42.702;23.200;2023-05-08T07:14:43;3.22;;;2.83;;
55467;SDS011;41332;42.702;23.200;2023-05-08T07:17:09;5.72;;;3.65;;
55467;SDS011;41332;42.702;23.200;2023-05-08T07:19:35;6.00;;;3.05;;
55467;SDS011;41332;42.702;23.200;2023-05-08T07:22:00;3.50;;;3.20;;
55467;SDS011;41332;42.702;23.200;2023-05-08T07:24:26;4.43;;;3.63;;
55467;SDS011;41332;42.702;23.200;2023-05-08T07:26:51;4.40;;;3.38;;
55467;SDS011;41332;42.702;23.200;2023-05-08T07:29:16;4.60;;;3.20;;
55467;SDS011;41332;42.702;23.200;2023-05-08T07:31:42;5.13;;;2.60;;
55467;SDS011;41332;42.702;23.200;2023-05-08T07:34:09;4.20;;;3.55;;
55467;SDS011;41332;42.702;23.200;2023-05-08T07:36:35;3.92;;;3.53;;
55467;SDS011;41332;42.702;23.200;2023-05-08T07:39:00;4.70;;;4.13;;
55467;SDS011;41332;42.702;23.200;2023-05-08T07:41:26;7.50;;;3.67;;
55467;SDS011;41332;42.702;23.200;2023-05-08T07:43:51;4.20;;;3.15;;
55467;SDS011;41332;42.702;23.200;2023-05-08T07:46:17;4.00;;;3.63;;
55467;SDS011;41332;42.702;23.200;2023-05-08T07:48:42;4.00;;;3.20;;
55467;SDS011;41332;42.702;23.200;2023-05-08T07:51:08;5.50;;;3.25;;
55467;SDS011;41332;42.702;23.200;2023-05-08T07:53:36;4.25;;;3.80;;
55467;SDS011;41332;42.702;23.200;2023-05-08T07:56:02;8.15;;;3.08;;
55467;SDS011;41332;42.702;23.200;2023-05-08T07:58:28;4.57;;;4.18;;
55467;SDS011;41332;42.702;23.200;2023-05-08T08:00:53;5.03;;;3.28;;
55467;SDS011;41332;42.702;23.200;2023-05-08T08:03:18;7.32;;;3.90;;
55467;SDS011;41332;42.702;23.200;2023-05-08T08:05:44;3.70;;;3.40;;
55467;SDS011;41332;42.702;23.200;2023-05-08T08:08:09;5.45;;;4.30;;
55467;SDS011;41332;42.702;23.200;2023-05-08T08:10:34;2.80;;;2.60;;
55467;SDS011;41332;42.702;23.200;2023-05-08T08:13:00;3.80;;;3.40;;
55467;SDS011;41332;42.702;23.200;2023-05-08T08:15:26;3.85;;;3.10;;
55467;SDS011;41332;42.702;23.200;2023-05-08T08:17:52;4.90;;;3.42;;
55467;SDS011;41332;42.702;23.200;2023-05-08T08:20:18;3.75;;;3.30;;
55467;SDS011;41332;42.702;23.200;2023-05-08T08:22:44;3.53;;;3.13;;
55467;SDS011;41332;42.702;23.200;2023-05-08T08:25:09;3.67;;;3.47;;
55467;SDS011;41332;42.702;23.200;2023-05-08T08:27:35;3.78;;;3.47;;
55467;SDS011;41332;42.702;23.200;2023-05-08T08:30:00;5.57;;;3.35;;
55467;SDS011;41332;42.702;23.200;2023-05-08T08:32:26;4.13;;;3.83;;
55467;SDS011;41332;42.702;23.200;2023-05-08T08:34:51;6.57;;;3.83;;
55467;SDS011;41332;42.702;23.200;2023-05-08T08:37:16;9.60;;;3.92;;
55467;SDS011;41332;42.702;23.200;2023-05-08T08:39:42;6.95;;;3.63;;
55467;SDS011;41332;42.702;23.200;2023-05-08T08:42:07;4.75;;;3.63;;
55467;SDS011;41332;42.702;23.200;2023-05-08T08:44:33;3.60;;;3.30;;
55467;SDS011;41332;42.702;23.200;2023-05-08T08:46:58;7.78;;;3.65;;
55467;SDS011;41332;42.702;23.200;2023-05-08T08:49:29;10.25;;;4.30;;
55467;SDS011;41332;42.702;23.200;2023-05-08T08:52:02;4.45;;;3.63;;
55467;SDS011;41332;42.702;23.200;2023-05-08T08:54:38;12.88;;;4.65;;
55467;SDS011;41332;42.702;23.200;2023-05-08T08:57:05;3.70;;;3.40;;
55467;SDS011;41332;42.702;23.200;2023-05-08T09:02:00;5.82;;;4.05;;
55467;SDS011;41332;42.702;23.200;2023-05-08T09:04:33;5.50;;;4.57;;
55467;SDS011;41332;42.702;23.200;2023-05-08T09:06:58;5.55;;;3.83;;
55467;SDS011;41332;42.702;23.200;2023-05-08T09:09:24;4.65;;;3.63;;
55467;SDS011;41332;42.702;23.200;2023-05-08T09:11:50;5.85;;;3.55;;
55467;SDS011;41332;42.702;23.200;2023-05-08T09:16:43;4.93;;;4.45;;
55467;SDS011;41332;42.702;23.200;2023-05-08T09:19:09;4.53;;;3.70;;
55467;SDS011;41332;42.702;23.200;2023-05-08T09:21:38;3.80;;;3.50;;
55467;SDS011;41332;42.702;23.200;2023-05-08T09:24:05;5.13;;;4.00;;
55467;SDS011;41332;42.702;23.200;2023-05-08T09:26:34;7.05;;;3.38;;
55467;SDS011;41332;42.702;23.200;2023-05-08T09:29:11;4.45;;;4.00;;
55467;SDS011;41332;42.702;23.200;2023-05-08T09:31:41;3.88;;;3.55;;
55467;SDS011;41332;42.702;23.200;2023-05-08T09:34:09;4.95;;;3.97;;
55467;SDS011;41332;42.702;23.200;2023-05-08T09:36:36;4.47;;;3.55;;
55467;SDS011;41332;42.702;23.200;2023-05-08T09:39:05;4.88;;;3.92;;
55467;SDS011;41332;42.702;23.200;2023-05-08T09:41:51;4.93;;;4.30;;
55467;SDS011;41332;42.702;23.200;2023-05-08T09:44:24;6.80;;;4.18;;
55467;SDS011;41332;42.702;23.200;2023-05-08T09:46:50;5.68;;;3.80;;
55467;SDS011;41332;42.702;23.200;2023-05-08T09:49:16;5.85;;;4.00;;
55467;SDS011;41332;42.702;23.200;2023-05-08T09:51:50;8.10;;;3.88;;
55467;SDS011;41332;42.702;23.200;2023-05-08T09:54:19;4.07;;;3.65;;
55467;SDS011;41332;42.702;23.200;2023-05-08T09:56:45;4.70;;;4.25;;
55467;SDS011;41332;42.702;23.200;2023-05-08T10:04:14;5.03;;;3.60;;
55467;SDS011;41332;42.702;23.200;2023-05-08T10:06:39;5.30;;;4.18;;
55467;SDS011;41332;42.702;23.200;2023-05-08T10:11:31;5.63;;;4.18;;
55467;SDS011;41332;42.702;23.200;2023-05-08T10:13:57;7.38;;;4.13;;
55467;SDS011;41332;42.702;23.200;2023-05-08T10:16:22;6.75;;;5.03;;
55467;SDS011;41332;42.702;23.200;2023-05-08T10:18:49;5.68;;;4.20;;
55467;SDS011;41332;42.702;23.200;2023-05-08T10:21:21;6.25;;;3.72;;
55467;SDS011;41332;42.702;23.200;2023-05-08T10:23:49;9.93;;;4.18;;
55467;SDS011;41332;42.702;23.200;2023-05-08T10:26:23;5.63;;;4.38;;
55467;SDS011;41332;42.702;23.200;2023-05-08T10:28:55;6.82;;;4.97;;
55467;SDS011;41332;42.702;23.200;2023-05-08T10:31:26;4.80;;;4.40;;
55467;SDS011;41332;42.702;23.200;2023-05-08T10:33:53;5.05;;;4.63;;
55467;SDS011;41332;42.702;23.200;2023-05-08T10:36:20;5.85;;;4.60;;
55467;SDS011;41332;42.702;23.200;2023-05-08T10:38:47;4.78;;;4.38;;
55467;SDS011;41332;42.702;23.200;2023-05-08T10:41:14;5.60;;;5.10;;
55467;SDS011;41332;42.702;23.200;2023-05-08T10:43:43;7.57;;;4.50;;
55467;SDS011;41332;42.702;23.200;2023-05-08T10:46:13;6.68;;;4.68;;
55467;SDS011;41332;42.702;23.200;2023-05-08T10:52:00;5.18;;;4.75;;
55467;SDS011;41332;42.702;23.200;2023-05-08T10:57:18;9.75;;;4.25;;
55467;SDS011;41332;42.702;23.200;2023-05-08T10:59:46;5.00;;;3.75;;
55467;SDS011;41332;42.702;23.200;2023-05-08T11:02:11;4.68;;;4.28;;
55467;SDS011;41332;42.702;23.200;2023-05-08T11:04:38;6.85;;;4.20;;
55467;SDS011;41332;42.702;23.200;2023-05-08T11:07:03;4.30;;;3.90;;
55467;SDS011;41332;42.702;23.200;2023-05-08T11:09:30;4.28;;;3.97;;
55467;SDS011;41332;42.702;23.200;2023-05-08T11:14:46;4.28;;;3.97;;
55467;SDS011;41332;42.702;23.200;2023-05-08T11:17:30;4.85;;;4.45;;
55467;SDS011;41332;42.702;23.200;2023-05-08T11:19:56;12.45;;;4.78;;
55467;SDS011;41332;42.702;23.200;2023-05-08T11:22:24;4.07;;;3.78;;
55467;SDS011;41332;42.702;23.200;2023-05-08T11:24:52;3.83;;;3.40;;
55467;SDS011;41332;42.702;23.200;2023-05-08T11:27:20;4.47;;;4.07;;
55467;SDS011;41332;42.702;23.200;2023-05-08T11:38:23;10.75;;;3.85;;
55467;SDS011;41332;42.702;23.200;2023-05-08T11:45:51;8.85;;;3.13;;
55467;SDS011;41332;42.702;23.200;2023-05-08T11:48:18;3.70;;;3.47;;
55467;SDS011;41332;42.702;23.200;2023-05-08T11:50:45;3.60;;;3.30;;
55467;SDS011;41332;42.702;23.200;2023-05-08T11:53:11;3.67;;;3.23;;
55467;SDS011;41332;42.702;23.200;2023-05-08T11:55:36;4.43;;;2.93;;
55467;SDS011;41332;42.702;23.200;2023-05-08T11:58:10;3.70;;;3.33;;
55467;SDS011;41332;42.702;23.200;2023-05-08T12:00:39;7.25;;;3.85;;
55467;SDS011;41332;42.702;23.200;2023-05-08T12:03:05;3.95;;;3.63;;
55467;SDS011;41332;42.702;23.200;2023-05-08T12:05:31;3.45;;;3.25;;
55467;SDS011;41332;42.702;23.200;2023-05-08T12:07:57;3.90;;;3.60;;
55467;SDS011;41332;42.702;23.200;2023-05-08T12:10:23;3.72;;;3.28;;
55467;SDS011;41332;42.702;23.200;2023-05-08T12:12:49;3.55;;;3.25;;
55467;SDS011;41332;42.702;23.200;2023-05-08T12:15:14;2.78;;;2.58;;
55467;SDS011;41332;42.702;23.200;2023-05-08T12:17:40;2.83;;;2.60;;
55467;SDS011;41332;42.702;23.200;2023-05-08T12:20:12;2.58;;;2.42;;
55467;SDS011;41332;42.702;23.200;2023-05-08T12:22:39;2.90;;;2.70;;
55467;SDS011;41332;42.702;23.200;2023-05-08T12:25:09;3.40;;;2.95;;
55467;SDS011;41332;42.702;23.200;2023-05-08T12:27:36;3.20;;;3.03;;
55467;SDS011;41332;42.702;23.200;2023-05-08T12:30:09;2.33;;;2.22;;
55467;SDS011;41332;42.702;23.200;2023-05-08T12:32:37;3.40;;;3.10;;
55467;SDS011;41332;42.702;23.200;2023-05-08T12:35:07;2.97;;;2.78;;
55467;SDS011;41332;42.702;23.200;2023-05-08T12:37:33;2.80;;;2.50;;
55467;SDS011;41332;42.702;23.200;2023-05-08T12:39:59;5.75;;;3.00;;
55467;SDS011;41332;42.702;23.200;2023-05-08T12:45:22;2.63;;;2.42;;
55467;SDS011;41332;42.702;23.200;2023-05-08T12:47:50;5.70;;;2.92;;
55467;SDS011;41332;42.702;23.200;2023-05-08T12:50:18;2.80;;;2.70;;
55467;SDS011;41332;42.702;23.200;2023-05-08T12:52:45;2.40;;;2.30;;
55467;SDS011;41332;42.702;23.200;2023-05-08T12:55:24;3.50;;;3.10;;
55467;SDS011;41332;42.702;23.200;2023-05-08T13:03:01;3.20;;;2.97;;
55467;SDS011;41332;42.702;23.200;2023-05-08T13:05:27;3.40;;;2.95;;
55467;SDS011;41332;42.702;23.200;2023-05-08T13:07:57;3.95;;;3.25;;
55467;SDS011;41332;42.702;23.200;2023-05-08T13:10:24;3.38;;;3.08;;
55467;SDS011;41332;42.702;23.200;2023-05-08T13:12:49;5.03;;;3.15;;
55467;SDS011;41332;42.702;23.200;2023-05-08T13:15:16;4.53;;;3.23;;
55467;SDS011;41332;42.702;23.200;2023-05-08T13:17:41;3.40;;;3.10;;
55467;SDS011;41332;42.702;23.200;2023-05-08T13:20:07;8.40;;;4.07;;
55467;SDS011;41332;42.702;23.200;2023-05-08T13:22:33;4.50;;;4.10;;
55467;SDS011;41332;42.702;23.200;2023-05-08T13:24:58;6.72;;;4.32;;
55467;SDS011;41332;42.702;23.200;2023-05-08T13:27:24;3.75;;;3.38;;
55467;SDS011;41332;42.702;23.200;2023-05-08T13:29:49;3.88;;;3.60;;
55467;SDS011;41332;42.702;23.200;2023-05-08T13:32:15;8.85;;;5.30;;
55467;SDS011;41332;42.702;23.200;2023-05-08T13:34:40;5.72;;;4.13;;
55467;SDS011;41332;42.702;23.200;2023-05-08T13:37:05;4.30;;;4.00;;
55467;SDS011;41332;42.702;23.200;2023-05-08T13:39:31;6.47;;;4.93;;
55467;SDS011;41332;42.702;23.200;2023-05-08T13:42:01;7.88;;;4.55;;
55467;SDS011;41332;42.702;23.200;2023-05-08T13:44:26;5.95;;;4.43;;
55467;SDS011;41332;42.702;23.200;2023-05-08T13:46:52;4.68;;;4.25;;
55467;SDS011;41332;42.702;23.200;2023-05-08T13:49:17;5.32;;;4.90;;
55467;SDS011;41332;42.702;23.200;2023-05-08T13:51:46;9.90;;;5.47;;
55467;SDS011;41332;42.702;23.200;2023-05-08T13:54:12;6.70;;;6.10;;
55467;SDS011;41332;42.702;23.200;2023-05-08T13:56:37;11.50;;;5.63;;
55467;SDS011;41332;42.702;23.200;2023-05-08T13:59:02;5.60;;;5.07;;
55467;SDS011;41332;42.702;23.200;2023-05-08T14:01:28;7.53;;;4.72;;
55467;SDS011;41332;42.702;23.200;2023-05-08T14:03:53;6.05;;;5.45;;
55467;SDS011;41332;42.702;23.200;2023-05-08T14:06:19;5.53;;;5.07;;
55467;SDS011;41332;42.702;23.200;2023-05-08T14:08:45;7.05;;;6.35;;
55467;SDS011;41332;42.702;23.200;2023-05-08T14:11:11;7.53;;;6.38;;
55467;SDS011;41332;42.702;23.200;2023-05-08T14:13:36;10.13;;;6.07;;
55467;SDS011;41332;42.702;23.200;2023-05-08T14:16:02;8.90;;;6.28;;
55467;SDS011;41332;42.702;23.200;2023-05-08T14:18:28;13.43;;;7.70;;
55467;SDS011;41332;42.702;23.200;2023-05-08T14:20:53;5.25;;;4.70;;
55467;SDS011;41332;42.702;23.200;2023-05-08T14:23:18;4.93;;;4.00;;
55467;SDS011;41332;42.702;23.200;2023-05-08T14:25:44;6.22;;;3.72;;
55467;SDS011;41332;42.702;23.200;2023-05-08T14:28:09;4.03;;;3.40;;
55467;SDS011;41332;42.702;23.200;2023-05-08T14:30:34;3.53;;;3.25;;
55467;SDS011;41332;42.702;23.200;2023-05-08T14:33:00;4.30;;;3.60;;
55467;SDS011;41332;42.702;23.200;2023-05-08T14:35:25;4.50;;;4.10;;
55467;SDS011;41332;42.702;23.200;2023-05-08T14:37:51;7.63;;;5.75;;
55467;SDS011;41332;42.702;23.200;2023-05-08T14:40:16;4.00;;;3.45;;
55467;SDS011;41332;42.702;23.200;2023-05-08T14:42:41;6.28;;;4.00;;
55467;SDS011;41332;42.702;23.200;2023-05-08T14:45:07;4.90;;;4.15;;
55467;SDS011;41332;42.702;23.200;2023-05-08T14:47:33;4.82;;;4.22;;
55467;SDS011;41332;42.702;23.200;2023-05-08T14:49:58;3.83;;;3.30;;
55467;SDS011;41332;42.702;23.200;2023-05-08T14:52:23;3.50;;;3.20;;
55467;SDS011;41332;42.702;23.200;2023-05-08T14:54:49;3.88;;;3.58;;
55467;SDS011;41332;42.702;23.200;2023-05-08T14:57:17;3.58;;;3.28;;
55467;SDS011;41332;42.702;23.200;2023-05-08T14:59:43;3.95;;;2.65;;
55467;SDS011;41332;42.702;23.200;2023-05-08T15:02:08;3.55;;;3.30;;
55467;SDS011;41332;42.702;23.200;2023-05-08T15:04:34;5.10;;;3.60;;
55467;SDS011;41332;42.702;23.200;2023-05-08T15:07:04;3.50;;;3.00;;
55467;SDS011;41332;42.702;23.200;2023-05-08T15:09:30;3.30;;;2.97;;
55467;SDS011;41332;42.702;23.200;2023-05-08T15:11:55;3.42;;;3.15;;
55467;SDS011;41332;42.702;23.200;2023-05-08T15:14:21;3.10;;;2.90;;
55467;SDS011;41332;42.702;23.200;2023-05-08T15:16:46;3.22;;;2.92;;
55467;SDS011;41332;42.702;23.200;2023-05-08T15:19:12;3.17;;;2.65;;
55467;SDS011;41332;42.702;23.200;2023-05-08T15:21:37;7.15;;;4.40;;
55467;SDS011;41332;42.702;23.200;2023-05-08T15:24:03;6.13;;;3.58;;
55467;SDS011;41332;42.702;23.200;2023-05-08T15:26:28;4.78;;;2.88;;
55467;SDS011;41332;42.702;23.200;2023-05-08T15:28:53;3.22;;;3.03;;
55467;SDS011;41332;42.702;23.200;2023-05-08T15:31:19;3.63;;;3.33;;
55467;SDS011;41332;42.702;23.200;2023-05-08T15:33:47;2.50;;;2.30;;
55467;SDS011;41332;42.702;23.200;2023-05-08T15:36:12;4.07;;;3.00;;
55467;SDS011;41332;42.702;23.200;2023-05-08T15:38:38;5.05;;;2.20;;
55467;SDS011;41332;42.702;23.200;2023-05-08T15:41:05;1.98;;;1.77;;
55467;SDS011;41332;42.702;23.200;2023-05-08T15:43:30;2.83;;;2.55;;
55467;SDS011;41332;42.702;23.200;2023-05-08T15:45:56;9.25;;;2.55;;
55467;SDS011;41332;42.702;23.200;2023-05-08T15:48:21;2.30;;;2.15;;
55467;SDS011;41332;42.702;23.200;2023-05-08T15:50:46;2.00;;;1.77;;
55467;SDS011;41332;42.702;23.200;2023-05-08T15:53:12;2.50;;;2.30;;
55467;SDS011;41332;42.702;23.200;2023-05-08T15:55:37;3.05;;;1.85;;